Foster, Wisconsin
Current Conditions -  °F | °C
As of 6:56 PM on Monday 26 Jan 2015 (Local Time) from KEAU Reporting Station
Haze Haze  
Wind Chill: 27°   Ceiling: 1600
Heat Index: 27°   Visibility: 6mi
Dew Point: 24°   Wind: 3mph
Humidity: 89%   Direction: 50°NE
Pressure: 29.84"   Gusts: NA
Location:  44.5464°N, 91.2123°W
Report Text: KEAU 270056Z 05003KT 6SM BR OVC016 M03/M04 A2984 RMK AO2 SLP119 T10281044
Loading
Personal Weather Stations






























Interactive Weather Map New forecast layout! Learn more

10-Day Weather Forecast

Advertisements
Track Severe Weather on mobile